createdAt,value
2022-09-25T00:01:22.774Z,100799.53
2022-09-25T00:03:50.616Z,100796.94
2022-09-25T00:06:21.747Z,100796.94
2022-09-25T00:08:50.106Z,100798.69
2022-09-25T00:11:22.474Z,100795.25
2022-09-25T00:13:51.586Z,100801.38
2022-09-25T00:16:23.012Z,100804.00
2022-09-25T00:19:09.730Z,100796.41
2022-09-25T00:21:37.931Z,100795.50
2022-09-25T00:24:08.709Z,100794.47
2022-09-25T00:26:39.492Z,100794.25
2022-09-25T00:29:08.634Z,100798.97
2022-09-25T00:31:36.631Z,100790.25
2022-09-25T00:34:05.725Z,100789.41
2022-09-25T00:36:33.911Z,100790.41
2022-09-25T00:39:02.016Z,100799.09
2022-09-25T00:41:32.181Z,100802.66
2022-09-25T00:44:02.952Z,100801.94
2022-09-25T00:46:35.988Z,100789.81
2022-09-25T00:49:10.141Z,100799.44
2022-09-25T00:51:41.322Z,100792.38
2022-09-25T00:54:16.023Z,100790.09
2022-09-25T00:56:47.752Z,100805.84
2022-09-25T00:59:19.905Z,100795.28
2022-09-25T01:01:47.815Z,100792.66
2022-09-25T01:04:16.612Z,100800.56
2022-09-25T01:06:44.866Z,100796.09
2022-09-25T01:09:12.465Z,100798.84
2022-09-25T01:11:40.840Z,100800.53
2022-09-25T01:14:10.520Z,100796.88
2022-09-25T01:16:51.999Z,100801.50
2022-09-25T01:19:22.864Z,100806.66
2022-09-25T01:22:00.782Z,100812.63
2022-09-25T01:24:55.782Z,100797.03
2022-09-25T01:27:32.255Z,100799.66
2022-09-25T01:30:20.786Z,100798.06
2022-09-25T01:33:00.592Z,100790.16
2022-09-25T01:36:04.230Z,100802.50
2022-09-25T01:38:41.559Z,100799.78
2022-09-25T01:41:14.363Z,100795.50
2022-09-25T01:44:13.670Z,100793.81
2022-09-25T01:46:47.563Z,100790.94
2022-09-25T01:49:25.110Z,100785.69
2022-09-25T01:51:56.002Z,100787.47
2022-09-25T01:54:53.208Z,100790.16
2022-09-25T01:57:29.709Z,100792.94
2022-09-25T02:00:08.723Z,100795.72
2022-09-25T02:02:57.550Z,100795.78
2022-09-25T02:05:35.172Z,100801.13
2022-09-25T02:08:08.421Z,100797.66
2022-09-25T02:10:43.559Z,100798.53
2022-09-25T02:13:17.698Z,100803.81
2022-09-25T02:15:56.443Z,100807.44
2022-09-25T02:18:43.717Z,100796.19
2022-09-25T02:21:12.452Z,100804.06
2022-09-25T02:23:41.407Z,100799.63
2022-09-25T02:26:16.551Z,100800.75
2022-09-25T02:28:45.641Z,100798.88
2022-09-25T02:31:16.925Z,100805.22
2022-09-25T02:33:44.676Z,100803.44
2022-09-25T02:36:24.261Z,100801.53
2022-09-25T02:38:55.054Z,100801.66
2022-09-25T02:41:56.377Z,100806.19
2022-09-25T02:44:50.927Z,100809.94
2022-09-25T02:47:43.555Z,100807.19
2022-09-25T02:50:46.563Z,100808.13
2022-09-25T02:53:23.370Z,100821.31
2022-09-25T02:55:59.192Z,100809.09
2022-09-25T02:58:33.443Z,100827.34
2022-09-25T03:01:06.018Z,100811.53
2022-09-25T03:03:35.151Z,100821.41
2022-09-25T03:06:03.849Z,100822.50
2022-09-25T03:08:38.271Z,100824.41
2022-09-25T03:11:09.894Z,100833.13
2022-09-25T03:13:38.308Z,100831.31
2022-09-25T03:16:16.262Z,100833.25
2022-09-25T03:18:43.985Z,100834.97
2022-09-25T03:21:12.084Z,100833.19
2022-09-25T03:23:40.103Z,100837.47
2022-09-25T03:26:07.909Z,100845.63
2022-09-25T03:28:35.557Z,100844.91
2022-09-25T03:31:10.535Z,100845.75
2022-09-25T03:33:41.246Z,100848.28
2022-09-25T03:36:22.275Z,100846.50
2022-09-25T03:38:52.751Z,100854.44
2022-09-25T03:41:22.593Z,100854.56
2022-09-25T03:43:52.059Z,100866.28
2022-09-25T03:46:23.060Z,100859.25
2022-09-25T03:48:55.180Z,100863.75
2022-09-25T03:51:24.610Z,100861.03
2022-09-25T03:53:53.676Z,100865.63
2022-09-25T03:56:24.415Z,100862.31
2022-09-25T03:58:56.375Z,100864.81
2022-09-25T04:01:26.654Z,100862.91
2022-09-25T04:03:54.711Z,100866.53
2022-09-25T04:06:25.657Z,100862.88
2022-09-25T04:08:53.878Z,100862.97
2022-09-25T04:11:24.314Z,100863.91
2022-09-25T04:13:53.106Z,100860.34
2022-09-25T04:16:23.200Z,100869.72
2022-09-25T04:18:51.375Z,100870.53
2022-09-25T04:21:19.259Z,100872.09
2022-09-25T04:24:07.752Z,100871.84
2022-09-25T04:26:35.857Z,100873.31
2022-09-25T04:29:04.142Z,100875.03
2022-09-25T04:31:32.866Z,100874.91
2022-09-25T04:34:03.135Z,100867.66
2022-09-25T04:36:30.688Z,100878.00
2022-09-25T04:38:58.197Z,100869.91
2022-09-25T04:41:25.791Z,100870.69
2022-09-25T04:43:53.262Z,100874.13
2022-09-25T04:46:22.679Z,100865.25
2022-09-25T04:48:51.058Z,100873.16
2022-09-25T04:51:18.623Z,100874.84
2022-09-25T04:53:46.811Z,100881.09
2022-09-25T04:56:16.226Z,100874.13
2022-09-25T04:58:49.762Z,100881.09
2022-09-25T05:01:20.442Z,100878.41
2022-09-25T05:03:50.331Z,100881.69
2022-09-25T05:06:18.536Z,100890.34
2022-09-25T05:08:49.766Z,100884.88
2022-09-25T05:11:18.057Z,100896.84
2022-09-25T05:13:49.122Z,100894.75
2022-09-25T05:16:16.762Z,100890.16
2022-09-25T05:18:44.329Z,100896.75
2022-09-25T05:21:12.222Z,100897.28
2022-09-25T05:23:39.736Z,100896.22
2022-09-25T05:26:07.291Z,100896.81
2022-09-25T05:28:35.937Z,100904.50
2022-09-25T05:31:04.537Z,100900.91
2022-09-25T05:33:34.283Z,100883.88
2022-09-25T05:36:03.095Z,100889.69
2022-09-25T05:38:33.003Z,100887.47
2022-09-25T05:41:04.958Z,100891.41
2022-09-25T05:43:34.396Z,100899.84
2022-09-25T05:46:02.021Z,100901.22
2022-09-25T05:48:29.625Z,100907.13
2022-09-25T05:50:58.268Z,100908.31
2022-09-25T05:53:26.897Z,100901.03
2022-09-25T05:55:59.916Z,100915.66
2022-09-25T05:58:29.638Z,100906.59
2022-09-25T06:01:04.544Z,100906.25
2022-09-25T06:03:32.761Z,100914.81
2022-09-25T06:06:02.315Z,100918.28
2022-09-25T06:08:35.771Z,100915.19
2022-09-25T06:11:05.343Z,100920.84
2022-09-25T06:13:34.881Z,100924.00
2022-09-25T06:16:05.685Z,100928.09
2022-09-25T06:18:34.143Z,100933.16
2022-09-25T06:21:04.866Z,100936.44
2022-09-25T06:23:33.172Z,100933.47
2022-09-25T06:26:05.811Z,100930.34
2022-09-25T06:28:34.567Z,100930.28
2022-09-25T06:31:04.363Z,100928.97
2022-09-25T06:33:32.947Z,100933.69
2022-09-25T06:36:01.246Z,100921.69
2022-09-25T06:38:29.433Z,100934.09
2022-09-25T06:41:00.410Z,100918.56
2022-09-25T06:43:28.959Z,100922.44
2022-09-25T06:45:59.936Z,100932.69
2022-09-25T06:48:27.970Z,100927.84
2022-09-25T06:50:57.839Z,100924.06
2022-09-25T06:53:26.060Z,100932.50
2022-09-25T06:55:57.914Z,100928.56
2022-09-25T06:58:26.974Z,100938.22
2022-09-25T07:00:56.276Z,100928.22
2022-09-25T07:03:42.610Z,100940.94
2022-09-25T07:06:15.213Z,100929.41
2022-09-25T07:08:48.222Z,100929.81
2022-09-25T07:11:22.546Z,100938.19
2022-09-25T07:13:55.166Z,100922.72
2022-09-25T07:16:25.591Z,100922.34
2022-09-25T07:18:58.535Z,100923.63
2022-09-25T07:21:29.454Z,100915.97
2022-09-25T07:23:58.976Z,100931.19
2022-09-25T07:26:30.082Z,100922.38
2022-09-25T07:29:03.773Z,100924.38
2022-09-25T07:31:33.738Z,100935.47
2022-09-25T07:34:05.952Z,100933.13
2022-09-25T07:36:34.010Z,100916.38
2022-09-25T07:39:01.831Z,100925.56
2022-09-25T07:41:29.751Z,100923.97
2022-09-25T07:44:24.283Z,100925.22
2022-09-25T07:46:46.850Z,100920.19
2022-09-25T07:49:14.849Z,100910.06
2022-09-25T07:51:42.303Z,100916.88
2022-09-25T07:54:10.789Z,100924.09
2022-09-25T07:56:38.805Z,100922.69
2022-09-25T07:59:08.769Z,100911.66
2022-09-25T08:01:41.222Z,100912.03
2022-09-25T08:04:11.313Z,100928.72
2022-09-25T08:06:39.722Z,100910.03
2022-09-25T08:09:10.649Z,100929.97
2022-09-25T08:11:38.851Z,100910.81
2022-09-25T08:14:07.110Z,100918.16
2022-09-25T08:16:34.919Z,100910.56
2022-09-25T08:19:02.536Z,100915.94
2022-09-25T08:21:30.149Z,100913.06
2022-09-25T08:23:57.726Z,100921.28
2022-09-25T08:26:25.396Z,100920.88
2022-09-25T08:28:53.023Z,100905.13
2022-09-25T08:31:20.759Z,100928.41
2022-09-25T08:33:50.208Z,100906.28
2022-09-25T08:36:18.330Z,100906.75
2022-09-25T08:38:46.777Z,100894.38
2022-09-25T08:41:24.536Z,100911.88
2022-09-25T08:43:55.495Z,100897.06
2022-09-25T08:47:19.695Z,100913.09
2022-09-25T08:50:05.102Z,100891.19
2022-09-25T08:52:34.383Z,100887.91
2022-09-25T08:55:02.113Z,100901.31
2022-09-25T08:57:37.240Z,100903.56
2022-09-25T09:00:09.578Z,100911.22
2022-09-25T09:02:41.558Z,100900.91
2022-09-25T09:05:25.065Z,100896.22
2022-09-25T09:07:59.485Z,100914.31
2022-09-25T09:10:53.411Z,100898.03
2022-09-25T09:13:27.682Z,100908.56
2022-09-25T09:16:01.553Z,100904.88
2022-09-25T09:18:32.019Z,100893.03
2022-09-25T09:21:09.450Z,100888.97
2022-09-25T09:24:04.319Z,100893.56
2022-09-25T09:26:56.769Z,100890.03
2022-09-25T09:29:42.941Z,100900.53
2022-09-25T09:32:19.478Z,100899.94
2022-09-25T09:35:11.678Z,100889.41
2022-09-25T09:37:59.169Z,100903.38
2022-09-25T09:40:47.314Z,100897.69
2022-09-25T09:43:55.028Z,100877.75
2022-09-25T09:46:25.183Z,100874.44
2022-09-25T09:49:02.412Z,100878.34
2022-09-25T09:51:40.694Z,100890.63
2022-09-25T09:54:22.496Z,100888.22
2022-09-25T09:56:52.085Z,100894.28
2022-09-25T09:59:23.388Z,100884.72
2022-09-25T10:02:40.748Z,100891.88
2022-09-25T10:05:29.162Z,100881.44
2022-09-25T10:07:57.082Z,100877.50
2022-09-25T10:10:39.294Z,100879.94
2022-09-25T10:13:17.251Z,100885.91
2022-09-25T10:16:12.378Z,100870.75
2022-09-25T10:19:04.336Z,100878.44
2022-09-25T10:21:42.343Z,100889.50
2022-09-25T10:24:10.763Z,100890.16
2022-09-25T10:26:40.005Z,100883.44
2022-09-25T10:29:10.660Z,100899.75
2022-09-25T10:31:40.836Z,100888.34
2022-09-25T10:34:17.783Z,100898.22
2022-09-25T10:36:51.401Z,100885.88
2022-09-25T10:39:44.859Z,100889.63
2022-09-25T10:42:40.136Z,100883.53
2022-09-25T10:45:22.822Z,100867.22
2022-09-25T10:48:09.806Z,100879.81
2022-09-25T10:50:38.043Z,100872.63
2022-09-25T10:53:07.647Z,100865.16
2022-09-25T10:55:40.192Z,100882.38
2022-09-25T10:58:10.662Z,100881.88
2022-09-25T11:00:53.268Z,100879.88
2022-09-25T11:03:26.722Z,100862.28
2022-09-25T11:06:09.298Z,100879.00
2022-09-25T11:08:41.368Z,100891.47
2022-09-25T11:11:10.585Z,100885.34
2022-09-25T11:13:51.224Z,100879.75
2022-09-25T11:16:19.869Z,100873.25
2022-09-25T11:19:05.008Z,100893.75
2022-09-25T11:21:44.374Z,100890.53
2022-09-25T11:24:33.638Z,100881.63
2022-09-25T11:27:15.738Z,100887.00
2022-09-25T11:30:06.714Z,100899.25
2022-09-25T11:32:54.781Z,100884.34
2022-09-25T11:35:34.976Z,100883.72
2022-09-25T11:38:45.084Z,100874.09
2022-09-25T11:41:55.943Z,100880.13
2022-09-25T11:44:47.804Z,100882.81
2022-09-25T11:47:20.701Z,100877.19
2022-09-25T11:49:53.393Z,100876.28
2022-09-25T11:52:44.964Z,100865.16
2022-09-25T11:55:49.793Z,100880.56
2022-09-25T11:58:17.265Z,100880.16
2022-09-25T12:01:06.186Z,100889.13
2022-09-25T12:04:21.649Z,100863.53
2022-09-25T12:06:55.814Z,100883.56
2022-09-25T12:09:35.609Z,100866.22
2022-09-25T12:12:21.765Z,100864.88
2022-09-25T12:15:09.185Z,100863.31
2022-09-25T12:17:55.265Z,100878.03
2022-09-25T12:20:49.510Z,100863.44
2022-09-25T12:23:42.385Z,100870.41
2022-09-25T12:26:18.578Z,100870.81
2022-09-25T12:28:58.340Z,100881.78
2022-09-25T12:31:53.616Z,100881.69
2022-09-25T12:34:52.651Z,100880.97
2022-09-25T12:37:33.604Z,100881.81
2022-09-25T12:40:12.273Z,100889.34
2022-09-25T12:43:00.759Z,100870.56
2022-09-25T12:45:49.955Z,100873.28
2022-09-25T12:48:20.614Z,100883.72
2022-09-25T12:50:55.356Z,100866.25
2022-09-25T12:53:32.024Z,100879.44
2022-09-25T12:56:08.520Z,100869.72
2022-09-25T12:59:04.353Z,100877.22
2022-09-25T13:01:49.756Z,100870.09
2022-09-25T13:04:28.305Z,100863.38
2022-09-25T13:07:09.701Z,100872.56
2022-09-25T13:09:47.641Z,100855.59
2022-09-25T13:12:28.263Z,100856.50
2022-09-25T13:15:37.433Z,100860.47
2022-09-25T13:18:08.192Z,100849.94
2022-09-25T13:20:37.777Z,100855.91
2022-09-25T13:23:14.501Z,100862.75
2022-09-25T13:26:00.527Z,100847.00
2022-09-25T13:28:36.765Z,100852.00
2022-09-25T13:31:12.028Z,100853.56
2022-09-25T13:34:00.249Z,100850.44
2022-09-25T13:36:38.251Z,100850.84
2022-09-25T13:39:35.492Z,100850.38
2022-09-25T13:42:25.550Z,100859.13
2022-09-25T13:45:07.969Z,100853.03
2022-09-25T13:47:49.856Z,100857.28
2022-09-25T13:50:22.769Z,100865.75
2022-09-25T13:53:14.798Z,100869.38
2022-09-25T13:56:02.547Z,100868.03
2022-09-25T13:58:52.051Z,100868.72
2022-09-25T14:01:33.050Z,100860.09
2022-09-25T14:04:01.199Z,100869.19
2022-09-25T14:06:38.351Z,100860.53
2022-09-25T14:09:23.715Z,100852.06
2022-09-25T14:12:33.092Z,100855.69
2022-09-25T14:15:06.159Z,100857.97
2022-09-25T14:17:36.088Z,100863.75
2022-09-25T14:20:08.472Z,100865.47
2022-09-25T14:22:49.100Z,100859.41
2022-09-25T14:25:37.558Z,100865.50
2022-09-25T14:28:19.420Z,100859.81
2022-09-25T14:31:06.638Z,100859.81
2022-09-25T14:33:56.747Z,100860.53
2022-09-25T14:36:50.458Z,100864.31
2022-09-25T14:39:39.872Z,100873.28
2022-09-25T14:42:31.815Z,100867.78
2022-09-25T14:45:21.244Z,100873.97
2022-09-25T14:47:49.854Z,100873.56
2022-09-25T14:50:25.319Z,100866.03
2022-09-25T14:52:58.194Z,100870.09
2022-09-25T14:55:35.533Z,100873.09
2022-09-25T14:58:09.231Z,100870.56
2022-09-25T15:00:46.929Z,100870.72
2022-09-25T15:03:18.980Z,100869.31
2022-09-25T15:05:49.142Z,100876.88
2022-09-25T15:08:30.430Z,100867.72
2022-09-25T15:11:18.257Z,100868.34
2022-09-25T15:13:48.403Z,100870.06
2022-09-25T15:16:41.502Z,100858.91
2022-09-25T15:19:23.031Z,100878.50
2022-09-25T15:21:54.095Z,100873.72
2022-09-25T15:24:30.758Z,100880.34
2022-09-25T15:27:06.699Z,100877.34
2022-09-25T15:29:37.773Z,100878.66
2022-09-25T15:32:06.027Z,100879.81
2022-09-25T15:34:34.046Z,100863.13
2022-09-25T15:37:27.863Z,100875.03
2022-09-25T15:39:56.276Z,100866.31
2022-09-25T15:42:23.811Z,100873.00
2022-09-25T15:44:52.328Z,100873.53
2022-09-25T15:47:29.113Z,100875.47
2022-09-25T15:49:56.911Z,100874.06
2022-09-25T15:52:32.500Z,100864.59
2022-09-25T15:55:02.842Z,100872.88
2022-09-25T15:57:32.226Z,100875.22
2022-09-25T16:00:25.403Z,100872.97
2022-09-25T16:03:22.138Z,100869.03
2022-09-25T16:05:52.534Z,100872.84
2022-09-25T16:08:32.213Z,100874.47
2022-09-25T16:11:09.356Z,100872.75
2022-09-25T16:13:41.723Z,100871.81
2022-09-25T16:16:30.205Z,100870.38
2022-09-25T16:19:00.104Z,100872.19
2022-09-25T16:21:29.291Z,100869.94
2022-09-25T16:24:00.173Z,100866.59
2022-09-25T16:26:36.827Z,100865.25
2022-09-25T16:29:24.496Z,100881.28
2022-09-25T16:31:54.055Z,100884.25
2022-09-25T16:34:26.952Z,100879.69
2022-09-25T16:36:58.278Z,100890.50
2022-09-25T16:39:30.419Z,100893.78
2022-09-25T16:42:00.131Z,100889.81
2022-09-25T16:44:27.998Z,100887.16
2022-09-25T16:46:56.189Z,100884.38
2022-09-25T16:49:25.053Z,100891.91
2022-09-25T16:51:54.848Z,100894.13
2022-09-25T16:54:31.755Z,100890.81
2022-09-25T16:57:00.363Z,100889.88
2022-09-25T16:59:28.560Z,100885.78
2022-09-25T17:02:05.054Z,100887.69
2022-09-25T17:04:35.919Z,100878.13
2022-09-25T17:07:03.767Z,100889.91
2022-09-25T17:09:31.570Z,100890.00
2022-09-25T17:12:08.629Z,100877.00
2022-09-25T17:14:38.035Z,100881.38
2022-09-25T17:17:06.084Z,100879.78
2022-09-25T17:19:33.657Z,100880.63
2022-09-25T17:22:01.819Z,100875.19
2022-09-25T17:24:30.576Z,100877.41
2022-09-25T17:26:58.376Z,100877.59
2022-09-25T17:29:27.175Z,100868.84
2022-09-25T17:31:55.137Z,100875.44
2022-09-25T17:34:28.652Z,100878.00
2022-09-25T17:36:57.959Z,100874.47
2022-09-25T17:39:25.492Z,100883.31
2022-09-25T17:41:53.157Z,100878.47
2022-09-25T17:44:23.345Z,100870.78
2022-09-25T17:46:51.911Z,100868.53
2022-09-25T17:49:19.876Z,100871.38
2022-09-25T17:51:47.699Z,100867.19
2022-09-25T17:54:17.374Z,100869.22
2022-09-25T17:56:46.370Z,100873.66
2022-09-25T17:59:15.193Z,100872.41
2022-09-25T18:01:42.864Z,100867.09
2022-09-25T18:04:28.445Z,100868.91
2022-09-25T18:06:56.844Z,100875.00
2022-09-25T18:09:24.384Z,100871.28
2022-09-25T18:11:52.706Z,100874.56
2022-09-25T18:14:21.056Z,100878.28
2022-09-25T18:16:48.708Z,100879.13
2022-09-25T18:19:38.179Z,100884.06
2022-09-25T18:22:19.321Z,100878.59
2022-09-25T18:24:56.695Z,100874.03
2022-09-25T18:27:28.772Z,100873.91
2022-09-25T18:29:56.786Z,100869.44
2022-09-25T18:32:24.461Z,100872.09
2022-09-25T18:34:52.305Z,100873.06
2022-09-25T18:37:20.659Z,100867.75
2022-09-25T18:39:48.320Z,100873.06
2022-09-25T18:42:15.952Z,100873.06
2022-09-25T18:44:44.584Z,100870.50
2022-09-25T18:47:12.222Z,100877.25
2022-09-25T18:49:39.870Z,100882.44
2022-09-25T18:52:07.516Z,100876.38
2022-09-25T18:54:35.453Z,100879.91
2022-09-25T18:57:03.142Z,100872.69
2022-09-25T18:59:30.827Z,100882.44
2022-09-25T19:02:00.162Z,100877.88
2022-09-25T19:04:28.792Z,100881.22
2022-09-25T19:06:56.603Z,100881.00
2022-09-25T19:09:27.269Z,100874.75
2022-09-25T19:11:56.065Z,100881.75
2022-09-25T19:14:24.239Z,100888.03
2022-09-25T19:16:53.229Z,100884.72
2022-09-25T19:19:21.165Z,100885.84
2022-09-25T19:21:48.920Z,100890.22
2022-09-25T19:24:18.424Z,100886.72
2022-09-25T19:26:48.141Z,100884.06
2022-09-25T19:29:15.910Z,100888.41
2022-09-25T19:31:43.621Z,100899.59
2022-09-25T19:34:12.348Z,100886.09
2022-09-25T19:36:40.845Z,100884.41
2022-09-25T19:39:08.533Z,100887.63
2022-09-25T19:41:38.079Z,100893.81
2022-09-25T19:44:13.641Z,100887.63
2022-09-25T19:46:43.362Z,100891.88
2022-09-25T19:49:12.723Z,100894.25
2022-09-25T19:51:41.724Z,100890.00
2022-09-25T19:54:11.647Z,100889.06
2022-09-25T19:56:40.991Z,100898.94
2022-09-25T19:59:13.101Z,100897.97
2022-09-25T20:01:43.108Z,100900.75
2022-09-25T20:04:17.965Z,100888.38
2022-09-25T20:06:48.677Z,100888.19
2022-09-25T20:09:16.545Z,100891.81
2022-09-25T20:11:45.291Z,100889.34
2022-09-25T20:14:13.547Z,100890.84
2022-09-25T20:16:41.152Z,100882.13
2022-09-25T20:19:09.124Z,100885.09
2022-09-25T20:21:39.484Z,100884.22
2022-09-25T20:24:09.306Z,100879.88
2022-09-25T20:26:38.202Z,100882.31
2022-09-25T20:29:12.607Z,100880.63
2022-09-25T20:31:44.648Z,100869.03
2022-09-25T20:34:14.946Z,100873.59
2022-09-25T20:36:42.933Z,100879.78
2022-09-25T20:39:10.608Z,100880.78
2022-09-25T20:41:38.816Z,100884.41
2022-09-25T20:44:07.044Z,100879.31
2022-09-25T20:46:34.705Z,100875.69
2022-09-25T20:49:03.690Z,100881.84
2022-09-25T20:51:34.930Z,100870.00
2022-09-25T20:54:05.988Z,100872.53
2022-09-25T20:56:36.465Z,100873.78
2022-09-25T20:59:04.916Z,100876.25
2022-09-25T21:01:36.837Z,100865.81
2022-09-25T21:04:08.205Z,100869.16
2022-09-25T21:06:39.087Z,100871.69
2022-09-25T21:09:26.290Z,100871.69
2022-09-25T21:11:54.306Z,100867.44
2022-09-25T21:14:24.803Z,100866.59
2022-09-25T21:16:52.387Z,100864.84
2022-09-25T21:19:21.491Z,100862.41
2022-09-25T21:21:49.168Z,100860.22
2022-09-25T21:24:20.572Z,100865.81
2022-09-25T21:26:48.559Z,100861.47
2022-09-25T21:29:17.420Z,100857.44
2022-09-25T21:31:49.888Z,100855.56
2022-09-25T21:34:19.451Z,100859.75
2022-09-25T21:36:48.434Z,100858.22
2022-09-25T21:39:16.444Z,100862.69
2022-09-25T21:41:44.107Z,100856.34
2022-09-25T21:44:14.763Z,100851.91
2022-09-25T21:46:42.536Z,100849.97
2022-09-25T21:49:16.398Z,100853.69
2022-09-25T21:51:45.834Z,100847.44
2022-09-25T21:54:14.623Z,100844.22
2022-09-25T21:56:43.322Z,100840.97
2022-09-25T21:59:11.341Z,100851.44
2022-09-25T22:01:40.141Z,100848.94
2022-09-25T22:04:12.164Z,100847.63
2022-09-25T22:06:44.477Z,100845.84
2022-09-25T22:09:18.633Z,100839.88
2022-09-25T22:11:49.161Z,100827.56
2022-09-25T22:14:18.683Z,100829.25
2022-09-25T22:16:49.317Z,100835.41
2022-09-25T22:19:22.775Z,100836.47
2022-09-25T22:21:52.569Z,100829.25
2022-09-25T22:24:20.620Z,100841.41
2022-09-25T22:26:49.630Z,100828.88
2022-09-25T22:29:17.754Z,100835.13
2022-09-25T22:31:45.213Z,100831.81
2022-09-25T22:34:27.900Z,100830.03
2022-09-25T22:36:59.944Z,100826.63
2022-09-25T22:39:29.307Z,100828.03
2022-09-25T22:41:57.250Z,100830.75
2022-09-25T22:44:25.142Z,100824.69
2022-09-25T22:46:52.644Z,100819.66
2022-09-25T22:49:20.218Z,100823.97
2022-09-25T22:51:48.117Z,100826.31
2022-09-25T22:54:15.848Z,100828.72
2022-09-25T22:56:44.465Z,100825.09
2022-09-25T22:59:18.618Z,100830.22
2022-09-25T23:01:53.935Z,100829.56
2022-09-25T23:04:23.790Z,100826.81
2022-09-25T23:06:51.870Z,100827.00
2022-09-25T23:09:21.844Z,100821.50
2022-09-25T23:11:49.491Z,100834.47
2022-09-25T23:14:21.139Z,100830.97
2022-09-25T23:16:50.878Z,100827.63
2022-09-25T23:19:19.617Z,100820.25
2022-09-25T23:21:47.436Z,100827.47
2022-09-25T23:24:17.160Z,100837.97
2022-09-25T23:26:45.591Z,100834.97
2022-09-25T23:29:15.617Z,100830.28
2022-09-25T23:31:44.059Z,100825.00
2022-09-25T23:34:12.208Z,100823.38
2022-09-25T23:36:41.083Z,100819.13
2022-09-25T23:39:14.274Z,100826.16
2022-09-25T23:41:44.138Z,100811.94
2022-09-25T23:44:12.330Z,100811.94
2022-09-25T23:46:42.179Z,100804.13
2022-09-25T23:49:10.829Z,100816.19
2022-09-25T23:51:38.846Z,100821.69
2022-09-25T23:54:07.768Z,100819.13
2022-09-25T23:56:36.057Z,100826.16
2022-09-25T23:59:07.579Z,100826.16
